sensor_id;sensor_type;location;lat;lon;timestamp;pressure;altitude;pressure_sealevel;temperature;humidity
43161;BME280;40968;52.342;5.528;2024-02-26T00:01:46;99821.53;;;3.95;83.85
43161;BME280;40968;52.342;5.528;2024-02-26T00:04:14;99948.38;;;4.59;83.92
43161;BME280;40968;52.342;5.528;2024-02-26T00:06:41;99776.31;;;3.70;83.83
43161;BME280;40968;52.342;5.528;2024-02-26T00:09:08;99746.78;;;3.47;83.79
43161;BME280;40968;52.342;5.528;2024-02-26T00:11:35;99745.28;;;3.28;83.90
43161;BME280;40968;52.342;5.528;2024-02-26T00:14:02;99795.63;;;3.72;84.19
43161;BME280;40968;52.342;5.528;2024-02-26T00:16:29;99790.72;;;3.65;84.38
43161;BME280;40968;52.342;5.528;2024-02-26T00:18:55;99793.28;;;3.67;84.42
43161;BME280;40968;52.342;5.528;2024-02-26T00:21:23;100086.13;;;5.35;84.81
43161;BME280;40968;52.342;5.528;2024-02-26T00:23:50;100085.38;;;5.32;84.77
43161;BME280;40968;52.342;5.528;2024-02-26T00:26:16;100047.13;;;4.93;84.74
43161;BME280;40968;52.342;5.528;2024-02-26T00:28:43;99829.03;;;3.60;84.92
43161;BME280;40968;52.342;5.528;2024-02-26T00:31:10;99846.38;;;3.80;85.06
43161;BME280;40968;52.342;5.528;2024-02-26T00:33:37;100093.00;;;5.24;85.42
43161;BME280;40968;52.342;5.528;2024-02-26T00:36:04;99795.34;;;3.33;85.43
43161;BME280;40968;52.342;5.528;2024-02-26T00:38:32;100093.94;;;5.23;85.56
43161;BME280;40968;52.342;5.528;2024-02-26T00:40:59;99913.56;;;4.08;85.77
43161;BME280;40968;52.342;5.528;2024-02-26T00:43:25;99986.88;;;4.52;85.48
43161;BME280;40968;52.342;5.528;2024-02-26T00:45:52;100080.69;;;5.09;85.76
43161;BME280;40968;52.342;5.528;2024-02-26T00:48:18;100091.75;;;5.15;85.65
43161;BME280;40968;52.342;5.528;2024-02-26T00:50:45;100004.22;;;4.43;85.68
43161;BME280;40968;52.342;5.528;2024-02-26T00:53:11;99804.59;;;3.26;86.02
43161;BME280;40968;52.342;5.528;2024-02-26T00:55:40;100085.78;;;5.12;86.48
43161;BME280;40968;52.342;5.528;2024-02-26T00:58:06;99813.59;;;3.38;86.40
43161;BME280;40968;52.342;5.528;2024-02-26T01:00:33;100087.88;;;5.07;86.88
43161;BME280;40968;52.342;5.528;2024-02-26T01:02:59;99813.59;;;3.38;86.82
43161;BME280;40968;52.342;5.528;2024-02-26T01:05:26;100042.41;;;4.70;87.17
43161;BME280;40968;52.342;5.528;2024-02-26T01:07:52;99986.13;;;4.36;87.27
43161;BME280;40968;52.342;5.528;2024-02-26T01:10:19;99884.50;;;3.77;87.07
43161;BME280;40968;52.342;5.528;2024-02-26T01:12:47;100093.41;;;5.04;87.23
43161;BME280;40968;52.342;5.528;2024-02-26T01:15:14;99814.16;;;3.28;87.28
43161;BME280;40968;52.342;5.528;2024-02-26T01:17:40;100067.91;;;4.72;87.54
43161;BME280;40968;52.342;5.528;2024-02-26T01:20:07;99804.09;;;3.19;87.66
43161;BME280;40968;52.342;5.528;2024-02-26T01:22:35;99833.25;;;3.34;87.83
43161;BME280;40968;52.342;5.528;2024-02-26T01:25:01;99873.34;;;3.58;88.06
43161;BME280;40968;52.342;5.528;2024-02-26T01:27:28;100093.22;;;4.92;88.16
43161;BME280;40968;52.342;5.528;2024-02-26T01:29:56;100027.06;;;4.46;88.32
43161;BME280;40968;52.342;5.528;2024-02-26T01:32:22;99849.72;;;3.39;88.52
43161;BME280;40968;52.342;5.528;2024-02-26T01:34:49;100105.06;;;4.87;88.37
43161;BME280;40968;52.342;5.528;2024-02-26T01:37:16;99883.88;;;3.29;87.84
43161;BME280;40968;52.342;5.528;2024-02-26T01:39:42;99633.34;;;1.93;87.61
43161;BME280;40968;52.342;5.528;2024-02-26T01:42:09;99886.03;;;3.37;87.96
43161;BME280;40968;52.342;5.528;2024-02-26T01:44:35;100105.75;;;4.76;88.27
43161;BME280;40968;52.342;5.528;2024-02-26T01:47:05;99862.09;;;3.24;88.47
43161;BME280;40968;52.342;5.528;2024-02-26T01:49:34;99935.06;;;3.44;88.45
43161;BME280;40968;52.342;5.528;2024-02-26T01:52:03;99922.41;;;3.49;88.50
43161;BME280;40968;52.342;5.528;2024-02-26T01:54:31;99860.41;;;3.23;88.86
43161;BME280;40968;52.342;5.528;2024-02-26T01:56:58;100091.34;;;4.65;88.90
43161;BME280;40968;52.342;5.528;2024-02-26T01:59:25;99805.19;;;2.86;88.89
43161;BME280;40968;52.342;5.528;2024-02-26T02:01:55;99821.81;;;2.88;89.11
43161;BME280;40968;52.342;5.528;2024-02-26T02:04:25;99845.06;;;3.13;89.11
43161;BME280;40968;52.342;5.528;2024-02-26T02:06:52;99863.09;;;3.07;89.00
43161;BME280;40968;52.342;5.528;2024-02-26T02:09:19;99928.09;;;3.57;89.29
43161;BME280;40968;52.342;5.528;2024-02-26T02:11:46;100115.91;;;4.69;89.06
43161;BME280;40968;52.342;5.528;2024-02-26T02:14:14;99828.81;;;2.89;88.76
43161;BME280;40968;52.342;5.528;2024-02-26T02:16:40;99822.34;;;2.79;88.68
43161;BME280;40968;52.342;5.528;2024-02-26T02:19:07;100127.56;;;4.67;88.78
43161;BME280;40968;52.342;5.528;2024-02-26T02:21:35;99856.88;;;2.92;88.44
43161;BME280;40968;52.342;5.528;2024-02-26T02:24:01;99823.31;;;2.62;88.07
43161;BME280;40968;52.342;5.528;2024-02-26T02:26:28;99854.56;;;3.02;88.26
43161;BME280;40968;52.342;5.528;2024-02-26T02:28:54;100081.63;;;4.36;88.17
43161;BME280;40968;52.342;5.528;2024-02-26T02:31:21;100067.13;;;4.27;88.09
43161;BME280;40968;52.342;5.528;2024-02-26T02:33:48;99960.78;;;3.42;88.06
43161;BME280;40968;52.342;5.528;2024-02-26T02:36:15;100088.06;;;4.31;88.20
43161;BME280;40968;52.342;5.528;2024-02-26T02:38:50;100123.16;;;4.51;88.24
43161;BME280;40968;52.342;5.528;2024-02-26T02:41:16;99837.91;;;2.69;88.03
43161;BME280;40968;52.342;5.528;2024-02-26T02:43:43;100052.50;;;4.05;88.10
43161;BME280;40968;52.342;5.528;2024-02-26T02:46:10;100095.25;;;4.29;88.34
43161;BME280;40968;52.342;5.528;2024-02-26T02:48:36;100085.78;;;4.25;88.24
43161;BME280;40968;52.342;5.528;2024-02-26T02:51:04;99945.03;;;3.24;88.21
43161;BME280;40968;52.342;5.528;2024-02-26T02:53:30;99857.19;;;2.87;88.18
43161;BME280;40968;52.342;5.528;2024-02-26T02:55:58;99928.56;;;3.19;88.53
43161;BME280;40968;52.342;5.528;2024-02-26T02:58:25;100099.63;;;4.30;88.57
43161;BME280;40968;52.342;5.528;2024-02-26T03:00:52;99738.53;;;2.03;88.38
43161;BME280;40968;52.342;5.528;2024-02-26T03:03:20;100142.50;;;4.53;88.60
43161;BME280;40968;52.342;5.528;2024-02-26T03:05:49;100149.72;;;4.51;88.70
43161;BME280;40968;52.342;5.528;2024-02-26T03:08:15;99970.66;;;3.40;88.90
43161;BME280;40968;52.342;5.528;2024-02-26T03:10:42;100148.19;;;4.47;89.03
43161;BME280;40968;52.342;5.528;2024-02-26T03:13:10;99913.16;;;2.95;88.81
43161;BME280;40968;52.342;5.528;2024-02-26T03:15:37;100159.94;;;4.43;89.11
43161;BME280;40968;52.342;5.528;2024-02-26T03:18:04;99949.50;;;3.08;89.25
43161;BME280;40968;52.342;5.528;2024-02-26T03:20:31;100160.88;;;4.42;89.36
43161;BME280;40968;52.342;5.528;2024-02-26T03:22:57;99922.31;;;2.74;89.07
43161;BME280;40968;52.342;5.528;2024-02-26T03:25:24;100080.50;;;3.64;89.34
43161;BME280;40968;52.342;5.528;2024-02-26T03:27:51;100051.50;;;3.61;89.52
43161;BME280;40968;52.342;5.528;2024-02-26T03:30:19;100162.72;;;4.25;89.49
43161;BME280;40968;52.342;5.528;2024-02-26T03:32:45;100111.75;;;3.90;89.53
43161;BME280;40968;52.342;5.528;2024-02-26T03:35:13;99938.19;;;2.74;89.48
43161;BME280;40968;52.342;5.528;2024-02-26T03:37:39;99975.81;;;3.11;89.44
43161;BME280;40968;52.342;5.528;2024-02-26T03:40:07;100203.34;;;4.42;89.43
43161;BME280;40968;52.342;5.528;2024-02-26T03:42:34;100199.75;;;4.43;89.46
43161;BME280;40968;52.342;5.528;2024-02-26T03:45:01;100139.94;;;4.07;89.32
43161;BME280;40968;52.342;5.528;2024-02-26T03:47:29;99897.84;;;2.54;89.04
43161;BME280;40968;52.342;5.528;2024-02-26T03:49:55;99946.78;;;2.93;89.31
43161;BME280;40968;52.342;5.528;2024-02-26T03:52:22;100090.56;;;3.74;89.50
43161;BME280;40968;52.342;5.528;2024-02-26T03:54:48;99887.34;;;2.37;89.55
43161;BME280;40968;52.342;5.528;2024-02-26T03:57:15;100198.38;;;4.36;89.81
43161;BME280;40968;52.342;5.528;2024-02-26T03:59:42;99932.16;;;2.72;89.64
43161;BME280;40968;52.342;5.528;2024-02-26T04:02:08;100208.16;;;4.35;89.82
43161;BME280;40968;52.342;5.528;2024-02-26T04:04:36;99831.47;;;2.11;89.70
43161;BME280;40968;52.342;5.528;2024-02-26T04:07:03;100224.06;;;4.35;90.60
43161;BME280;40968;52.342;5.528;2024-02-26T04:09:31;100211.63;;;4.36;90.66
43161;BME280;40968;52.342;5.528;2024-02-26T04:11:57;99890.50;;;2.27;90.14
43161;BME280;40968;52.342;5.528;2024-02-26T04:14:24;99878.91;;;2.30;89.95
43161;BME280;40968;52.342;5.528;2024-02-26T04:16:51;99932.81;;;2.59;90.16
43161;BME280;40968;52.342;5.528;2024-02-26T04:19:19;99916.59;;;2.49;90.56
43161;BME280;40968;52.342;5.528;2024-02-26T04:21:47;100054.13;;;3.31;90.77
43161;BME280;40968;52.342;5.528;2024-02-26T04:24:14;100216.34;;;4.30;90.84
43161;BME280;40968;52.342;5.528;2024-02-26T04:26:41;99938.19;;;2.58;90.59
43161;BME280;40968;52.342;5.528;2024-02-26T04:29:07;100009.97;;;2.99;90.67
43161;BME280;40968;52.342;5.528;2024-02-26T04:31:34;99938.78;;;2.47;90.58
43161;BME280;40968;52.342;5.528;2024-02-26T04:34:00;99966.97;;;2.64;90.57
43161;BME280;40968;52.342;5.528;2024-02-26T04:36:27;99954.66;;;2.47;90.41
43161;BME280;40968;52.342;5.528;2024-02-26T04:38:55;100157.69;;;3.58;90.80
43161;BME280;40968;52.342;5.528;2024-02-26T04:41:21;99971.56;;;2.60;90.79
43161;BME280;40968;52.342;5.528;2024-02-26T04:43:48;100253.69;;;4.27;90.85
43161;BME280;40968;52.342;5.528;2024-02-26T04:46:14;99986.31;;;2.64;90.72
43161;BME280;40968;52.342;5.528;2024-02-26T04:48:41;99963.38;;;2.49;90.83
43161;BME280;40968;52.342;5.528;2024-02-26T04:51:08;100214.72;;;3.97;91.17
43161;BME280;40968;52.342;5.528;2024-02-26T04:53:35;99971.38;;;2.47;91.17
43161;BME280;40968;52.342;5.528;2024-02-26T04:56:03;99966.09;;;2.47;91.10
43161;BME280;40968;52.342;5.528;2024-02-26T04:58:30;99979.84;;;2.54;91.24
43161;BME280;40968;52.342;5.528;2024-02-26T05:00:56;99979.91;;;2.53;91.21
43161;BME280;40968;52.342;5.528;2024-02-26T05:03:23;100270.44;;;4.28;91.86
43161;BME280;40968;52.342;5.528;2024-02-26T05:05:50;99956.69;;;2.26;91.40
43161;BME280;40968;52.342;5.528;2024-02-26T05:08:16;100201.97;;;3.88;91.85
43161;BME280;40968;52.342;5.528;2024-02-26T05:10:45;100053.69;;;2.91;91.98
43161;BME280;40968;52.342;5.528;2024-02-26T05:13:13;100043.19;;;2.89;91.97
43161;BME280;40968;52.342;5.528;2024-02-26T05:15:40;100208.22;;;3.87;91.97
43161;BME280;40968;52.342;5.528;2024-02-26T05:18:07;100271.56;;;4.24;92.26
43161;BME280;40968;52.342;5.528;2024-02-26T05:20:34;99966.38;;;2.25;92.10
43161;BME280;40968;52.342;5.528;2024-02-26T05:23:01;100222.06;;;3.92;92.22
43161;BME280;40968;52.342;5.528;2024-02-26T05:25:29;100275.34;;;4.20;92.48
43161;BME280;40968;52.342;5.528;2024-02-26T05:27:55;100226.16;;;3.98;92.36
43161;BME280;40968;52.342;5.528;2024-02-26T05:30:23;100084.81;;;3.03;92.57
43161;BME280;40968;52.342;5.528;2024-02-26T05:32:52;99952.25;;;2.26;92.58
43161;BME280;40968;52.342;5.528;2024-02-26T05:35:18;100160.00;;;3.32;92.68
43161;BME280;40968;52.342;5.528;2024-02-26T05:37:45;100096.13;;;2.89;92.88
43161;BME280;40968;52.342;5.528;2024-02-26T05:40:12;100041.38;;;2.74;92.89
43161;BME280;40968;52.342;5.528;2024-02-26T05:42:39;100220.19;;;3.78;93.10
43161;BME280;40968;52.342;5.528;2024-02-26T05:45:06;100241.41;;;3.94;93.33
43161;BME280;40968;52.342;5.528;2024-02-26T05:47:34;100218.81;;;3.71;93.30
43161;BME280;40968;52.342;5.528;2024-02-26T05:50:01;99924.94;;;1.76;92.93
43161;BME280;40968;52.342;5.528;2024-02-26T05:52:28;100307.59;;;4.12;93.12
43161;BME280;40968;52.342;5.528;2024-02-26T05:54:56;100256.34;;;3.79;93.29
43161;BME280;40968;52.342;5.528;2024-02-26T05:57:23;100005.28;;;2.23;93.21
43161;BME280;40968;52.342;5.528;2024-02-26T05:59:50;100249.59;;;3.74;93.67
43161;BME280;40968;52.342;5.528;2024-02-26T06:02:16;100231.88;;;3.58;93.86
43161;BME280;40968;52.342;5.528;2024-02-26T06:04:44;100061.56;;;2.43;93.71
43161;BME280;40968;52.342;5.528;2024-02-26T06:07:11;100095.19;;;2.57;93.66
43161;BME280;40968;52.342;5.528;2024-02-26T06:09:38;100239.22;;;3.53;93.99
43161;BME280;40968;52.342;5.528;2024-02-26T06:12:05;100148.31;;;2.87;93.94
43161;BME280;40968;52.342;5.528;2024-02-26T06:14:32;100078.19;;;2.45;94.02
43161;BME280;40968;52.342;5.528;2024-02-26T06:16:58;100342.41;;;4.06;94.53
43161;BME280;40968;52.342;5.528;2024-02-26T06:19:25;100047.44;;;2.26;94.15
43161;BME280;40968;52.342;5.528;2024-02-26T06:21:53;100028.66;;;2.15;93.97
43161;BME280;40968;52.342;5.528;2024-02-26T06:24:20;99933.81;;;1.58;94.24
43161;BME280;40968;52.342;5.528;2024-02-26T06:26:47;99871.94;;;0.93;94.19
43161;BME280;40968;52.342;5.528;2024-02-26T06:29:14;100067.78;;;2.42;94.37
43161;BME280;40968;52.342;5.528;2024-02-26T06:31:41;100334.63;;;4.03;94.70
43161;BME280;40968;52.342;5.528;2024-02-26T06:34:08;100292.63;;;3.79;94.58
43161;BME280;40968;52.342;5.528;2024-02-26T06:36:35;100072.38;;;2.38;94.36
43161;BME280;40968;52.342;5.528;2024-02-26T06:39:03;100046.19;;;2.16;94.38
43161;BME280;40968;52.342;5.528;2024-02-26T06:41:30;100029.13;;;2.06;94.55
43161;BME280;40968;52.342;5.528;2024-02-26T06:43:57;99995.56;;;1.90;94.59
43161;BME280;40968;52.342;5.528;2024-02-26T06:46:24;100289.09;;;3.62;94.92
43161;BME280;40968;52.342;5.528;2024-02-26T06:48:51;100035.97;;;2.10;94.71
43161;BME280;40968;52.342;5.528;2024-02-26T06:51:18;100025.00;;;2.00;94.63
43161;BME280;40968;52.342;5.528;2024-02-26T06:53:45;99951.28;;;1.60;94.65
43161;BME280;40968;52.342;5.528;2024-02-26T06:56:13;100037.50;;;2.14;94.69
43161;BME280;40968;52.342;5.528;2024-02-26T06:58:39;100257.34;;;3.45;94.79
43161;BME280;40968;52.342;5.528;2024-02-26T07:01:06;100049.81;;;2.15;94.42
43161;BME280;40968;52.342;5.528;2024-02-26T07:03:33;100176.13;;;2.78;94.61
43161;BME280;40968;52.342;5.528;2024-02-26T07:06:00;100036.88;;;2.09;94.37
43161;BME280;40968;52.342;5.528;2024-02-26T07:08:27;100389.03;;;4.10;94.37
43161;BME280;40968;52.342;5.528;2024-02-26T07:10:53;100132.19;;;2.58;93.93
43161;BME280;40968;52.342;5.528;2024-02-26T07:13:21;100089.59;;;2.29;93.92
43161;BME280;40968;52.342;5.528;2024-02-26T07:15:48;100409.41;;;4.09;94.03
43161;BME280;40968;52.342;5.528;2024-02-26T07:18:15;99995.09;;;1.47;93.54
43161;BME280;40968;52.342;5.528;2024-02-26T07:20:42;100293.75;;;3.41;93.83
43161;BME280;40968;52.342;5.528;2024-02-26T07:23:08;100357.50;;;3.72;93.78
43161;BME280;40968;52.342;5.528;2024-02-26T07:25:35;100420.81;;;4.11;94.13
43161;BME280;40968;52.342;5.528;2024-02-26T07:28:01;100104.22;;;2.19;93.63
43161;BME280;40968;52.342;5.528;2024-02-26T07:30:29;100130.91;;;2.32;93.44
43161;BME280;40968;52.342;5.528;2024-02-26T07:32:58;100161.44;;;2.55;93.40
43161;BME280;40968;52.342;5.528;2024-02-26T07:35:24;100243.22;;;2.77;93.14
43161;BME280;40968;52.342;5.528;2024-02-26T07:37:52;100426.34;;;4.07;93.35
43161;BME280;40968;52.342;5.528;2024-02-26T07:40:19;100435.09;;;4.09;93.21
43161;BME280;40968;52.342;5.528;2024-02-26T07:42:46;100402.75;;;3.85;93.21
43161;BME280;40968;52.342;5.528;2024-02-26T07:45:12;100344.53;;;3.49;93.21
43161;BME280;40968;52.342;5.528;2024-02-26T07:47:42;100219.16;;;2.64;92.89
43161;BME280;40968;52.342;5.528;2024-02-26T07:50:09;100213.38;;;2.74;92.95
43161;BME280;40968;52.342;5.528;2024-02-26T07:52:37;100432.13;;;3.97;93.33
43161;BME280;40968;52.342;5.528;2024-02-26T07:55:04;100195.66;;;2.41;92.77
43161;BME280;40968;52.342;5.528;2024-02-26T07:57:32;100182.63;;;2.38;92.58
43161;BME280;40968;52.342;5.528;2024-02-26T07:59:59;100251.94;;;2.79;92.66
43161;BME280;40968;52.342;5.528;2024-02-26T08:02:26;100245.78;;;2.79;92.41
43161;BME280;40968;52.342;5.528;2024-02-26T08:04:54;100200.50;;;2.50;92.24
43161;BME280;40968;52.342;5.528;2024-02-26T08:07:20;100301.06;;;3.03;92.28
43161;BME280;40968;52.342;5.528;2024-02-26T08:09:47;100312.56;;;3.02;92.41
43161;BME280;40968;52.342;5.528;2024-02-26T08:12:14;100473.91;;;4.10;92.73
43161;BME280;40968;52.342;5.528;2024-02-26T08:14:40;100464.16;;;4.10;92.26
43161;BME280;40968;52.342;5.528;2024-02-26T08:17:08;100238.00;;;2.76;92.06
43161;BME280;40968;52.342;5.528;2024-02-26T08:19:34;100307.66;;;3.11;92.34
43161;BME280;40968;52.342;5.528;2024-02-26T08:22:03;100280.56;;;2.89;91.97
43161;BME280;40968;52.342;5.528;2024-02-26T08:24:29;100219.72;;;2.71;91.83
43161;BME280;40968;52.342;5.528;2024-02-26T08:26:56;100258.25;;;2.77;91.30
43161;BME280;40968;52.342;5.528;2024-02-26T08:29:23;100358.81;;;3.29;91.41
43161;BME280;40968;52.342;5.528;2024-02-26T08:31:49;100201.91;;;2.40;91.62
43161;BME280;40968;52.342;5.528;2024-02-26T08:34:16;100241.44;;;2.78;91.47
43161;BME280;40968;52.342;5.528;2024-02-26T08:36:42;100198.66;;;2.35;91.07
43161;BME280;40968;52.342;5.528;2024-02-26T08:39:11;100431.63;;;3.91;90.91
43161;BME280;40968;52.342;5.528;2024-02-26T08:41:39;100384.13;;;3.53;90.83
43161;BME280;40968;52.342;5.528;2024-02-26T08:44:05;100444.06;;;3.89;90.84
43161;BME280;40968;52.342;5.528;2024-02-26T08:46:32;100401.31;;;3.61;90.48
43161;BME280;40968;52.342;5.528;2024-02-26T08:49:00;100444.59;;;3.95;90.58
43161;BME280;40968;52.342;5.528;2024-02-26T08:51:27;100531.31;;;4.28;90.72
43161;BME280;40968;52.342;5.528;2024-02-26T08:53:54;100173.22;;;2.32;90.41
43161;BME280;40968;52.342;5.528;2024-02-26T08:56:22;100483.34;;;4.15;90.33
43161;BME280;40968;52.342;5.528;2024-02-26T08:58:49;100180.13;;;2.35;89.87
43161;BME280;40968;52.342;5.528;2024-02-26T09:01:16;100505.38;;;4.34;90.05
43161;BME280;40968;52.342;5.528;2024-02-26T09:03:43;100190.63;;;2.36;89.65
43161;BME280;40968;52.342;5.528;2024-02-26T09:06:10;100457.63;;;4.00;89.49
43161;BME280;40968;52.342;5.528;2024-02-26T09:08:37;100308.84;;;3.06;89.24
43161;BME280;40968;52.342;5.528;2024-02-26T09:11:04;100211.41;;;2.44;89.08
43161;BME280;40968;52.342;5.528;2024-02-26T09:13:32;100469.78;;;4.04;89.32
43161;BME280;40968;52.342;5.528;2024-02-26T09:15:59;100325.47;;;3.08;88.48
43161;BME280;40968;52.342;5.528;2024-02-26T09:18:25;100295.38;;;2.93;88.87
43161;BME280;40968;52.342;5.528;2024-02-26T09:20:54;100242.97;;;2.47;88.21
43161;BME280;40968;52.342;5.528;2024-02-26T09:23:20;100316.53;;;2.93;88.31
43161;BME280;40968;52.342;5.528;2024-02-26T09:25:47;100494.38;;;3.90;88.63
43161;BME280;40968;52.342;5.528;2024-02-26T09:28:14;100548.91;;;4.47;88.13
43161;BME280;40968;52.342;5.528;2024-02-26T09:30:43;100471.59;;;3.86;87.98
43161;BME280;40968;52.342;5.528;2024-02-26T09:33:10;100437.72;;;3.75;87.84
43161;BME280;40968;52.342;5.528;2024-02-26T09:35:38;100486.72;;;4.02;88.24
43161;BME280;40968;52.342;5.528;2024-02-26T09:38:05;100330.47;;;3.14;88.40
43161;BME280;40968;52.342;5.528;2024-02-26T09:40:31;100317.09;;;2.99;88.42
43161;BME280;40968;52.342;5.528;2024-02-26T09:42:59;100564.41;;;4.55;88.80
43161;BME280;40968;52.342;5.528;2024-02-26T09:45:28;100582.03;;;4.56;88.73
43161;BME280;40968;52.342;5.528;2024-02-26T09:47:58;100332.50;;;3.09;88.54
43161;BME280;40968;52.342;5.528;2024-02-26T09:50:25;100331.19;;;3.00;88.24
43161;BME280;40968;52.342;5.528;2024-02-26T09:52:52;100384.50;;;3.27;88.32
43161;BME280;40968;52.342;5.528;2024-02-26T09:55:20;100589.59;;;4.63;89.19
43161;BME280;40968;52.342;5.528;2024-02-26T09:57:48;100526.00;;;4.28;88.76
43161;BME280;40968;52.342;5.528;2024-02-26T10:00:18;100295.59;;;2.71;88.01
43161;BME280;40968;52.342;5.528;2024-02-26T10:02:45;100598.53;;;4.62;87.94
43161;BME280;40968;52.342;5.528;2024-02-26T10:05:14;100540.03;;;4.30;88.75
43161;BME280;40968;52.342;5.528;2024-02-26T10:07:43;100545.03;;;4.37;89.06
43161;BME280;40968;52.342;5.528;2024-02-26T10:10:10;100548.44;;;4.39;88.77
43161;BME280;40968;52.342;5.528;2024-02-26T10:12:37;100516.03;;;4.16;88.31
43161;BME280;40968;52.342;5.528;2024-02-26T10:15:04;100567.47;;;4.47;88.69
43161;BME280;40968;52.342;5.528;2024-02-26T10:17:31;100647.00;;;4.82;88.86
43161;BME280;40968;52.342;5.528;2024-02-26T10:20:15;100540.50;;;4.21;88.23
43161;BME280;40968;52.342;5.528;2024-02-26T10:22:43;100643.44;;;4.83;88.44
43161;BME280;40968;52.342;5.528;2024-02-26T10:25:09;100396.75;;;3.30;88.55
43161;BME280;40968;52.342;5.528;2024-02-26T10:27:36;100468.19;;;3.67;88.25
43161;BME280;40968;52.342;5.528;2024-02-26T10:30:03;100617.38;;;4.74;88.55
43161;BME280;40968;52.342;5.528;2024-02-26T10:32:30;100644.13;;;4.87;88.55
43161;BME280;40968;52.342;5.528;2024-02-26T10:34:58;100654.84;;;4.85;88.57
43161;BME280;40968;52.342;5.528;2024-02-26T10:37:26;100654.56;;;4.90;88.48
43161;BME280;40968;52.342;5.528;2024-02-26T10:39:53;100323.78;;;2.89;88.45
43161;BME280;40968;52.342;5.528;2024-02-26T10:42:19;100436.03;;;3.57;88.56
43161;BME280;40968;52.342;5.528;2024-02-26T10:44:46;100648.59;;;4.86;88.78
43161;BME280;40968;52.342;5.528;2024-02-26T10:47:14;100509.81;;;4.00;88.61
43161;BME280;40968;52.342;5.528;2024-02-26T10:49:45;100669.00;;;5.02;88.51
43161;BME280;40968;52.342;5.528;2024-02-26T10:52:12;100316.16;;;2.83;87.94
43161;BME280;40968;52.342;5.528;2024-02-26T10:54:41;100473.63;;;3.81;87.79
43161;BME280;40968;52.342;5.528;2024-02-26T10:57:10;100446.91;;;3.68;88.04
43161;BME280;40968;52.342;5.528;2024-02-26T10:59:38;100479.81;;;3.81;87.93
43161;BME280;40968;52.342;5.528;2024-02-26T11:02:07;100488.78;;;3.79;87.76
43161;BME280;40968;52.342;5.528;2024-02-26T11:04:35;100590.78;;;4.58;87.99
43161;BME280;40968;52.342;5.528;2024-02-26T11:07:03;100571.25;;;4.43;87.62
43161;BME280;40968;52.342;5.528;2024-02-26T11:09:31;100698.31;;;5.16;87.07
43161;BME280;40968;52.342;5.528;2024-02-26T11:12:00;100431.66;;;3.56;86.77
43161;BME280;40968;52.342;5.528;2024-02-26T11:14:29;100703.41;;;5.21;86.53
43161;BME280;40968;52.342;5.528;2024-02-26T11:16:57;100673.94;;;4.92;86.55
43161;BME280;40968;52.342;5.528;2024-02-26T11:19:24;100710.03;;;5.29;86.70
43161;BME280;40968;52.342;5.528;2024-02-26T11:21:53;100542.38;;;4.19;86.75
43161;BME280;40968;52.342;5.528;2024-02-26T11:24:19;100622.66;;;4.91;87.30
43161;BME280;40968;52.342;5.528;2024-02-26T11:27:00;100402.59;;;3.54;85.73
43161;BME280;40968;52.342;5.528;2024-02-26T11:29:32;100625.78;;;4.82;85.49
43161;BME280;40968;52.342;5.528;2024-02-26T11:32:00;100470.97;;;3.98;85.34
43161;BME280;40968;52.342;5.528;2024-02-26T11:34:27;100485.63;;;4.06;85.75
43161;BME280;40968;52.342;5.528;2024-02-26T11:36:55;100575.78;;;4.57;85.87
43161;BME280;40968;52.342;5.528;2024-02-26T11:39:22;100476.28;;;3.98;85.95
43161;BME280;40968;52.342;5.528;2024-02-26T11:41:50;100458.97;;;3.91;85.69
43161;BME280;40968;52.342;5.528;2024-02-26T11:44:28;100728.06;;;5.56;85.39
43161;BME280;40968;52.342;5.528;2024-02-26T11:46:56;100568.84;;;4.54;84.94
43161;BME280;40968;52.342;5.528;2024-02-26T11:49:30;100489.81;;;4.10;85.43
43161;BME280;40968;52.342;5.528;2024-02-26T11:51:58;100501.84;;;4.17;85.43
43161;BME280;40968;52.342;5.528;2024-02-26T11:54:38;100677.34;;;5.27;84.98
43161;BME280;40968;52.342;5.528;2024-02-26T11:57:19;100501.38;;;4.09;84.61
43161;BME280;40968;52.342;5.528;2024-02-26T11:59:47;100745.56;;;5.60;84.31
43161;BME280;40968;52.342;5.528;2024-02-26T12:02:45;100753.44;;;5.62;84.47
43161;BME280;40968;52.342;5.528;2024-02-26T12:05:14;100468.81;;;3.89;84.10
43161;BME280;40968;52.342;5.528;2024-02-26T12:07:43;100488.63;;;4.00;84.38
43161;BME280;40968;52.342;5.528;2024-02-26T12:10:23;100750.44;;;5.68;84.67
43161;BME280;40968;52.342;5.528;2024-02-26T12:12:53;100534.38;;;4.21;83.27
43161;BME280;40968;52.342;5.528;2024-02-26T12:15:22;100703.00;;;5.28;83.48
43161;BME280;40968;52.342;5.528;2024-02-26T12:17:49;100782.63;;;5.63;83.17
43161;BME280;40968;52.342;5.528;2024-02-26T12:20:18;100563.41;;;4.40;83.14
43161;BME280;40968;52.342;5.528;2024-02-26T12:22:46;100754.00;;;5.69;83.81
43161;BME280;40968;52.342;5.528;2024-02-26T12:25:13;100789.31;;;5.71;83.67
43161;BME280;40968;52.342;5.528;2024-02-26T12:27:40;100757.41;;;5.71;83.50
43161;BME280;40968;52.342;5.528;2024-02-26T12:30:09;100772.66;;;5.67;83.33
43161;BME280;40968;52.342;5.528;2024-02-26T12:32:37;100506.75;;;4.07;82.75
43161;BME280;40968;52.342;5.528;2024-02-26T12:35:05;100806.66;;;5.78;83.27
43161;BME280;40968;52.342;5.528;2024-02-26T12:37:32;100518.44;;;4.21;82.60
43161;BME280;40968;52.342;5.528;2024-02-26T12:40:01;100742.28;;;5.55;82.71
43161;BME280;40968;52.342;5.528;2024-02-26T12:42:29;100634.09;;;4.76;82.41
43161;BME280;40968;52.342;5.528;2024-02-26T12:44:57;100550.69;;;4.13;82.40
43161;BME280;40968;52.342;5.528;2024-02-26T12:47:24;100581.09;;;4.23;82.59
43161;BME280;40968;52.342;5.528;2024-02-26T12:49:52;100527.91;;;4.09;82.37
43161;BME280;40968;52.342;5.528;2024-02-26T12:52:19;100806.81;;;5.75;82.60
43161;BME280;40968;52.342;5.528;2024-02-26T12:54:47;100569.06;;;4.16;82.27
43161;BME280;40968;52.342;5.528;2024-02-26T12:57:13;100549.56;;;4.17;82.50
43161;BME280;40968;52.342;5.528;2024-02-26T12:59:41;100805.25;;;5.71;82.78
43161;BME280;40968;52.342;5.528;2024-02-26T13:02:08;100546.13;;;4.15;82.75
43161;BME280;40968;52.342;5.528;2024-02-26T13:04:35;100592.78;;;4.37;82.99